Time;durP1;ratioP1;P1;durP2;ratioP2;P2;SDS_P1;SDS_P2;PMS_P1;PMS_P2;Temp;Humidity;BMP_temperature;BMP_pressure;BME280_temperature;BME280_humidity;BME280_pressure;Samples;Min_cycle;Max_cycle;Signal;HPM_P1;HPM_P2
2023/04/28 00:00:47;;;;;;;12.05;6.10;;;8.90;99.90;;;;;;7293258;32;20123;-55
2023/04/28 00:04:49;;;;;;;8.25;6.47;;;8.80;99.90;;;;;;7293688;32;21042;-54
2023/04/28 00:08:51;;;;;;;7.32;5.72;;;8.80;99.90;;;;;;7292794;32;20481;-54
2023/04/28 00:12:52;;;;;;;9.45;5.95;;;8.80;99.90;;;;;;7291793;32;20183;-54
2023/04/28 00:16:56;;;;;;;9.95;5.85;;;8.70;99.90;;;;;;7294239;32;20717;-56
2023/04/28 00:20:58;;;;;;;7.35;6.47;;;8.80;99.90;;;;;;7297492;32;20522;-56
2023/04/28 00:25:00;;;;;;;8.73;6.50;;;8.80;99.90;;;;;;7293561;32;20184;-56
2023/04/28 00:29:02;;;;;;;13.52;7.37;;;8.70;99.90;;;;;;7291382;32;20902;-57
2023/04/28 00:33:04;;;;;;;10.68;7.47;;;8.70;99.90;;;;;;7299466;32;20128;-56
2023/04/28 00:37:06;;;;;;;9.40;6.75;;;8.70;99.90;;;;;;7291687;32;20266;-56
2023/04/28 00:41:11;;;;;;;12.93;7.60;;;8.70;99.90;;;;;;7297562;32;20629;-56
2023/04/28 00:45:13;;;;;;;9.95;7.05;;;8.60;99.90;;;;;;7300508;32;20175;-56
2023/04/28 00:49:15;;;;;;;10.45;6.90;;;8.60;99.90;;;;;;7303094;32;20179;-56
2023/04/28 00:53:16;;;;;;;11.77;7.28;;;8.60;99.90;;;;;;7295920;32;20103;-56
2023/04/28 00:57:18;;;;;;;11.93;7.45;;;8.60;99.90;;;;;;7298419;32;20128;-57
2023/04/28 01:01:20;;;;;;;13.52;7.78;;;8.60;99.90;;;;;;7299909;32;20182;-56
2023/04/28 01:05:25;;;;;;;15.05;8.10;;;8.60;99.90;;;;;;7294708;32;20163;-54
2023/04/28 01:09:26;;;;;;;12.35;7.57;;;8.60;99.90;;;;;;7301823;32;20491;-56
2023/04/28 01:13:28;;;;;;;13.62;7.55;;;8.70;99.90;;;;;;7299042;32;20122;-54
2023/04/28 01:17:30;;;;;;;12.02;7.75;;;8.60;99.90;;;;;;7296081;32;20179;-54
2023/04/28 01:21:32;;;;;;;10.77;7.62;;;8.60;99.90;;;;;;7294404;32;20544;-54
2023/04/28 01:25:34;;;;;;;10.75;7.78;;;8.60;99.90;;;;;;7294843;32;20112;-54
2023/04/28 01:29:36;;;;;;;11.38;8.25;;;8.60;99.90;;;;;;7299654;32;20850;-54
2023/04/28 01:33:38;;;;;;;11.85;8.00;;;8.70;99.90;;;;;;7294309;32;20136;-54
2023/04/28 01:37:40;;;;;;;15.65;8.60;;;8.70;99.90;;;;;;7295543;32;20512;-58
2023/04/28 01:41:42;;;;;;;13.95;8.40;;;8.70;99.90;;;;;;7296689;32;20236;-54
2023/04/28 01:45:43;;;;;;;13.07;8.75;;;8.70;99.90;;;;;;7293563;32;21179;-56
2023/04/28 01:49:47;;;;;;;16.12;9.70;;;8.70;99.90;;;;;;7293797;32;20813;-54
2023/04/28 01:53:48;;;;;;;14.77;8.98;;;8.70;99.90;;;;;;7291273;32;20119;-54
2023/04/28 01:57:50;;;;;;;14.27;9.50;;;8.70;99.90;;;;;;7294712;32;20112;-55
2023/04/28 02:01:52;;;;;;;14.13;9.35;;;8.70;99.90;;;;;;7296879;32;20544;-54
2023/04/28 02:05:54;;;;;;;11.80;8.90;;;8.70;99.90;;;;;;7293382;32;20124;-54
2023/04/28 02:09:55;;;;;;;12.43;9.60;;;8.80;99.90;;;;;;7296861;32;20186;-54
2023/04/28 02:13:57;;;;;;;12.32;8.60;;;8.80;99.90;;;;;;7294607;32;20226;-54
2023/04/28 02:17:59;;;;;;;12.23;9.23;;;8.90;99.90;;;;;;7294816;32;20096;-54
2023/04/28 02:22:01;;;;;;;13.82;8.98;;;8.90;99.90;;;;;;7284954;32;20153;-54
2023/04/28 02:26:03;;;;;;;11.80;8.75;;;9.00;99.90;;;;;;7296413;32;20718;-54
2023/04/28 02:30:05;;;;;;;12.15;8.30;;;9.00;99.90;;;;;;7294980;32;20446;-54
2023/04/28 02:34:07;;;;;;;12.65;8.02;;;9.10;99.90;;;;;;7298372;32;20099;-54
2023/04/28 02:38:09;;;;;;;14.45;7.82;;;9.10;99.90;;;;;;7294881;32;20183;-55
2023/04/28 02:42:10;;;;;;;12.93;7.93;;;9.20;99.90;;;;;;7296345;32;20620;-56
2023/04/28 02:46:12;;;;;;;11.57;7.75;;;9.30;99.90;;;;;;7303668;32;20092;-55
2023/04/28 02:50:14;;;;;;;12.30;7.50;;;9.30;99.90;;;;;;7309501;32;20317;-55
2023/04/28 02:54:15;;;;;;;9.95;7.43;;;9.30;99.90;;;;;;7309916;32;20095;-55
2023/04/28 02:58:17;;;;;;;10.10;7.55;;;9.30;99.90;;;;;;7312678;32;20172;-55
2023/04/28 03:02:21;;;;;;;11.98;7.85;;;9.30;99.90;;;;;;7308295;32;20968;-55
2023/04/28 03:06:23;;;;;;;13.48;8.32;;;9.40;99.90;;;;;;7309451;32;20224;-55
2023/04/28 03:10:25;;;;;;;9.27;6.97;;;9.30;99.90;;;;;;7310157;32;20716;-55
2023/04/28 03:14:27;;;;;;;9.85;7.35;;;9.30;99.90;;;;;;7307538;32;20461;-56
2023/04/28 03:18:28;;;;;;;10.68;7.37;;;9.30;99.90;;;;;;7301588;32;20248;-56
2023/04/28 03:22:30;;;;;;;13.18;8.60;;;9.40;99.90;;;;;;7306709;32;20175;-55
2023/04/28 03:26:32;;;;;;;9.43;7.97;;;9.30;99.90;;;;;;7305337;32;20139;-56
2023/04/28 03:30:34;;;;;;;15.85;8.43;;;9.40;99.90;;;;;;7300141;32;20146;-55
2023/04/28 03:34:36;;;;;;;11.60;7.78;;;9.30;99.90;;;;;;7306400;32;20108;-55
2023/04/28 03:38:37;;;;;;;12.95;7.90;;;9.40;99.90;;;;;;7306249;32;20222;-55
2023/04/28 03:42:39;;;;;;;10.02;7.65;;;9.40;99.90;;;;;;7298420;32;20255;-56
2023/04/28 03:46:41;;;;;;;12.70;7.85;;;9.40;99.90;;;;;;7305150;32;20119;-55
2023/04/28 03:50:44;;;;;;;13.62;8.15;;;9.30;99.90;;;;;;7305279;32;20224;-55
2023/04/28 03:54:46;;;;;;;15.35;8.00;;;9.40;99.90;;;;;;7303540;32;20178;-55
2023/04/28 03:58:47;;;;;;;12.57;7.75;;;9.50;99.90;;;;;;7308217;32;20111;-54
2023/04/28 04:02:49;;;;;;;11.45;7.72;;;9.50;99.90;;;;;;7310187;32;20469;-55
2023/04/28 04:06:52;;;;;;;13.73;9.07;;;9.50;99.90;;;;;;7304423;32;20092;-54
2023/04/28 04:10:54;;;;;;;14.38;9.32;;;9.50;99.90;;;;;;7307973;32;20128;-55
2023/04/28 04:14:56;;;;;;;11.05;8.13;;;9.50;99.90;;;;;;7312520;32;20095;-54
2023/04/28 04:18:58;;;;;;;16.70;9.57;;;9.60;99.90;;;;;;7306521;32;20582;-55
2023/04/28 04:23:00;;;;;;;12.18;8.77;;;9.60;99.90;;;;;;7305200;32;20254;-55
2023/04/28 04:27:02;;;;;;;12.60;8.00;;;9.50;99.90;;;;;;7308400;32;20124;-54
2023/04/28 04:31:04;;;;;;;16.37;8.00;;;9.50;99.90;;;;;;7301276;32;20099;-54
2023/04/28 04:35:06;;;;;;;9.98;8.20;;;9.60;99.90;;;;;;7321615;32;20186;-54
2023/04/28 04:39:08;;;;;;;11.35;8.15;;;9.60;99.90;;;;;;7306490;32;20161;-57
2023/04/28 04:43:10;;;;;;;12.13;7.87;;;9.60;99.90;;;;;;7301920;32;20286;-56
2023/04/28 04:47:12;;;;;;;14.25;8.82;;;9.60;99.90;;;;;;7307258;32;20180;-56
2023/04/28 04:51:13;;;;;;;11.27;8.48;;;9.70;99.90;;;;;;7304298;32;20190;-57
2023/04/28 04:55:15;;;;;;;12.63;8.60;;;9.70;99.90;;;;;;7304438;32;20577;-56
2023/04/28 04:59:17;;;;;;;12.80;8.18;;;9.60;99.90;;;;;;7301228;32;20517;-56
2023/04/28 05:03:19;;;;;;;12.50;8.90;;;9.70;99.90;;;;;;7307697;32;20188;-57
2023/04/28 05:07:21;;;;;;;10.88;7.80;;;9.60;99.90;;;;;;7305174;32;20278;-57
2023/04/28 05:11:23;;;;;;;11.30;7.50;;;9.60;99.90;;;;;;7309227;32;20277;-56
2023/04/28 05:15:25;;;;;;;12.05;7.70;;;9.70;99.90;;;;;;7303285;32;20206;-58
2023/04/28 05:19:26;;;;;;;10.98;6.93;;;9.80;99.90;;;;;;7286452;32;20196;-56
2023/04/28 05:23:28;;;;;;;10.68;7.30;;;9.80;99.90;;;;;;7306269;32;20108;-56
2023/04/28 05:27:30;;;;;;;11.88;8.02;;;9.80;99.90;;;;;;7312932;32;20144;-57
2023/04/28 05:31:32;;;;;;;7.62;6.12;;;9.90;99.90;;;;;;7302376;32;20555;-56
2023/04/28 05:35:34;;;;;;;8.13;6.37;;;10.00;99.90;;;;;;7302696;32;20823;-56
2023/04/28 05:39:36;;;;;;;11.43;7.28;;;10.00;99.90;;;;;;7301811;32;20104;-56
2023/04/28 05:43:38;;;;;;;11.15;7.20;;;10.00;99.90;;;;;;7307642;32;20122;-55
2023/04/28 05:47:40;;;;;;;9.95;7.20;;;10.10;99.90;;;;;;7307107;32;20468;-57
2023/04/28 05:51:41;;;;;;;9.65;7.22;;;10.20;99.90;;;;;;7301585;32;20123;-56
2023/04/28 05:55:43;;;;;;;13.65;6.87;;;10.20;99.90;;;;;;7297844;32;20128;-56
2023/04/28 05:59:45;;;;;;;11.15;6.80;;;10.30;99.90;;;;;;7306089;32;20541;-55
2023/04/28 06:03:46;;;;;;;9.48;6.45;;;10.50;99.90;;;;;;7303568;32;20209;-55
2023/04/28 06:07:48;;;;;;;9.63;5.93;;;10.60;99.90;;;;;;7297802;32;20137;-55
2023/04/28 06:11:51;;;;;;;9.93;6.00;;;10.60;99.90;;;;;;7306598;32;20266;-56
2023/04/28 06:15:52;;;;;;;8.85;5.82;;;10.80;99.90;;;;;;7294190;32;20172;-55
2023/04/28 06:19:54;;;;;;;8.00;5.03;;;11.00;99.90;;;;;;7300287;32;20215;-56
2023/04/28 06:23:56;;;;;;;8.02;5.80;;;11.20;99.90;;;;;;7299491;32;20125;-55
2023/04/28 06:27:57;;;;;;;7.93;5.22;;;11.30;99.90;;;;;;7304389;32;20124;-56
2023/04/28 06:31:59;;;;;;;7.30;5.45;;;11.50;99.90;;;;;;7298670;32;20287;-56
2023/04/28 06:36:01;;;;;;;9.50;5.45;;;11.70;99.90;;;;;;7298649;32;20127;-56
2023/04/28 06:40:03;;;;;;;7.78;4.87;;;11.90;99.90;;;;;;7300661;32;20521;-56
2023/04/28 06:44:05;;;;;;;9.30;5.32;;;12.20;99.90;;;;;;7301831;32;20578;-56
2023/04/28 06:48:07;;;;;;;12.57;5.37;;;12.40;99.90;;;;;;7306083;32;20772;-56
2023/04/28 06:52:09;;;;;;;9.45;5.43;;;12.50;99.90;;;;;;7303785;32;20218;-55
2023/04/28 06:56:10;;;;;;;7.20;5.28;;;12.60;99.90;;;;;;7300874;32;20130;-58
2023/04/28 07:00:13;;;;;;;6.55;4.80;;;12.50;99.90;;;;;;7295122;32;20679;-56
2023/04/28 07:04:15;;;;;;;6.97;5.35;;;12.60;99.90;;;;;;7294081;32;20226;-56
2023/04/28 07:08:17;;;;;;;9.35;4.78;;;12.80;99.90;;;;;;7292415;32;20222;-55
2023/04/28 07:12:20;;;;;;;8.20;4.18;;;13.00;99.90;;;;;;7293708;32;20636;-56
2023/04/28 07:16:22;;;;;;;8.60;4.93;;;13.20;99.90;;;;;;7293637;32;20737;-56
2023/04/28 07:20:24;;;;;;;8.40;4.85;;;13.20;99.90;;;;;;7299135;32;20146;-55
2023/04/28 07:24:26;;;;;;;7.05;5.22;;;13.10;99.90;;;;;;7292743;32;20100;-56
2023/04/28 07:28:28;;;;;;;7.90;4.70;;;13.10;99.90;;;;;;7291265;32;20143;-57
2023/04/28 07:32:29;;;;;;;7.80;4.72;;;13.00;99.90;;;;;;7293810;32;20104;-55
2023/04/28 07:36:31;;;;;;;9.10;5.82;;;13.10;99.90;;;;;;7293011;32;20112;-55
2023/04/28 07:40:33;;;;;;;6.35;5.20;;;13.10;99.90;;;;;;7293355;32;20120;-55
2023/04/28 07:44:35;;;;;;;9.02;5.25;;;13.00;99.90;;;;;;7290992;32;20311;-55
2023/04/28 07:48:36;;;;;;;6.78;5.62;;;13.00;99.90;;;;;;7293000;32;20123;-55
2023/04/28 07:52:38;;;;;;;9.45;5.93;;;12.70;99.90;;;;;;7288489;32;20178;-55
2023/04/28 07:56:40;;;;;;;8.57;5.40;;;12.80;99.90;;;;;;7298490;32;20116;-56
2023/04/28 08:00:42;;;;;;;8.48;5.43;;;12.80;99.90;;;;;;7301377;32;20332;-55
2023/04/28 08:04:43;;;;;;;8.15;5.43;;;12.90;99.90;;;;;;7296201;32;20120;-56
2023/04/28 08:08:46;;;;;;;8.50;5.43;;;12.70;99.90;;;;;;7300435;32;20259;-56
2023/04/28 08:12:47;;;;;;;7.95;5.70;;;12.70;99.90;;;;;;7302195;32;20108;-55
2023/04/28 08:16:49;;;;;;;8.52;5.85;;;12.70;99.90;;;;;;7304466;32;20226;-55
2023/04/28 08:20:51;;;;;;;8.02;5.80;;;12.80;99.90;;;;;;7297613;32;20131;-56
2023/04/28 08:24:52;;;;;;;8.55;6.53;;;12.90;99.90;;;;;;7295051;32;20122;-56
2023/04/28 08:28:54;;;;;;;10.52;6.28;;;12.90;99.90;;;;;;7290170;32;20183;-56
2023/04/28 08:32:56;;;;;;;11.20;6.80;;;12.80;99.90;;;;;;7300494;32;20512;-56
2023/04/28 08:36:57;;;;;;;11.23;6.70;;;12.90;99.90;;;;;;7297304;32;20108;-56
2023/04/28 08:41:02;;;;;;;11.15;5.87;;;13.20;99.90;;;;;;7295441;32;20952;-56
2023/04/28 08:45:04;;;;;;;9.43;6.28;;;13.40;99.90;;;;;;7292078;32;20171;-57
2023/04/28 08:49:11;;;;;;;9.18;6.28;;;13.70;99.90;;;;;;7291046;32;20211;-57
2023/04/28 08:53:14;;;;;;;9.77;6.95;;;13.80;99.90;;;;;;7318107;32;20153;-56
2023/04/28 08:57:19;;;;;;;11.60;6.30;;;14.10;99.90;;;;;;7313475;32;20168;-55
2023/04/28 09:01:22;;;;;;;12.15;6.18;;;14.30;99.90;;;;;;7322127;32;20103;-56
2023/04/28 09:05:24;;;;;;;9.93;6.25;;;14.20;99.90;;;;;;7313912;32;20127;-55
2023/04/28 09:09:31;;;;;;;8.77;6.57;;;14.10;99.90;;;;;;7320421;32;20104;-56
2023/04/28 09:13:36;;;;;;;9.57;6.72;;;14.00;99.90;;;;;;7327855;32;20541;-56
2023/04/28 09:17:51;;;;;;;12.48;7.15;;;13.60;99.90;;;;;;7313763;32;20095;-57
2023/04/28 09:21:56;;;;;;;11.50;7.22;;;13.60;99.90;;;;;;7306260;32;20141;-56
2023/04/28 09:26:04;;;;;;;9.77;6.78;;;13.50;99.90;;;;;;7308268;32;20120;-56
2023/04/28 09:30:06;;;;;;;11.85;7.50;;;13.50;99.90;;;;;;7308277;32;20793;-56
2023/04/28 09:34:08;;;;;;;11.10;7.18;;;13.60;99.90;;;;;;7310799;32;20137;-56
2023/04/28 09:38:10;;;;;;;10.07;7.50;;;13.70;99.90;;;;;;7307037;32;20128;-59
2023/04/28 09:42:40;;;;;;;13.10;7.72;;;13.80;99.90;;;;;;7305256;32;20234;-57
2023/04/28 09:46:43;;;;;;;11.05;7.75;;;13.60;99.90;;;;;;7306202;32;20128;-57
2023/04/28 09:50:45;;;;;;;13.05;7.62;;;13.50;99.90;;;;;;7309636;32;20198;-56
2023/04/28 09:54:49;;;;;;;10.57;8.57;;;13.60;99.90;;;;;;7304731;32;20241;-56
2023/04/28 09:58:52;;;;;;;13.55;8.85;;;13.60;99.90;;;;;;7302198;32;20771;-56
2023/04/28 10:02:54;;;;;;;13.25;8.35;;;13.70;99.90;;;;;;7300003;32;20182;-56
2023/04/28 10:06:56;;;;;;;11.30;8.20;;;13.60;99.90;;;;;;7303229;32;20137;-56
2023/04/28 10:10:59;;;;;;;13.82;9.07;;;13.70;99.90;;;;;;7301290;32;20257;-56
2023/04/28 10:15:01;;;;;;;13.20;9.15;;;13.70;99.90;;;;;;7299471;32;20143;-57
2023/04/28 10:19:04;;;;;;;11.70;8.60;;;13.70;99.90;;;;;;7304888;32;20574;-57
2023/04/28 10:23:48;;;;;;;13.98;9.68;;;13.60;99.90;;;;;;7303033;32;20294;-56
2023/04/28 10:27:50;;;;;;;12.85;9.40;;;13.60;99.90;;;;;;7301752;32;20129;-56
2023/04/28 10:32:18;;;;;;;12.65;9.60;;;13.70;99.90;;;;;;7313057;32;20104;-57
2023/04/28 10:36:46;;;;;;;14.40;10.75;;;13.60;99.90;;;;;;7304432;32;20148;-57
2023/04/28 10:40:49;;;;;;;15.57;10.68;;;13.60;99.90;;;;;;7303154;32;20203;-56
2023/04/28 10:44:51;;;;;;;15.43;10.90;;;13.60;99.90;;;;;;7300756;32;20179;-57
2023/04/28 10:48:54;;;;;;;12.48;11.05;;;13.70;99.90;;;;;;7298172;32;20284;-56
2023/04/28 10:52:56;;;;;;;15.55;11.18;;;13.80;99.90;;;;;;7297703;32;20183;-55
2023/04/28 10:57:17;;;;;;;14.77;12.13;;;13.90;99.90;;;;;;7302951;32;20200;-56
2023/04/28 11:01:25;;;;;;;18.98;13.05;;;14.00;99.90;;;;;;7298358;32;20196;-56
2023/04/28 11:05:29;;;;;;;15.18;12.35;;;13.90;99.90;;;;;;7311437;32;20107;-56
2023/04/28 11:09:31;;;;;;;18.30;13.80;;;13.90;99.90;;;;;;7303585;32;20144;-58
2023/04/28 11:13:33;;;;;;;17.33;12.35;;;14.10;99.90;;;;;;7304356;32;20099;-56
2023/04/28 11:17:41;;;;;;;19.25;14.30;;;14.10;99.90;;;;;;7314182;32;20334;-57
2023/04/28 11:21:43;;;;;;;16.15;14.00;;;14.20;99.90;;;;;;7313609;32;20311;-57
2023/04/28 11:25:57;;;;;;;16.45;14.73;;;14.30;99.90;;;;;;7307819;32;20154;-57
2023/04/28 11:30:00;;;;;;;16.02;14.43;;;14.30;99.90;;;;;;7308236;32;20116;-57
2023/04/28 11:34:04;;;;;;;17.75;15.48;;;14.20;99.90;;;;;;7301422;32;20408;-57
2023/04/28 11:38:05;;;;;;;17.12;15.32;;;14.20;99.90;;;;;;7303877;32;20289;-57
2023/04/28 11:42:10;;;;;;;17.90;15.95;;;14.10;99.90;;;;;;7308456;32;20310;-57
2023/04/28 11:46:20;;;;;;;17.23;15.35;;;14.20;99.90;;;;;;7305535;32;20443;-56
2023/04/28 11:50:35;;;;;;;18.27;16.42;;;14.30;99.90;;;;;;7303216;32;20118;-57
2023/04/28 11:54:37;;;;;;;19.35;16.12;;;14.40;99.90;;;;;;7310465;32;20120;-57
2023/04/28 11:58:39;;;;;;;17.58;15.77;;;14.30;99.90;;;;;;7295756;32;20128;-65
2023/04/28 12:02:41;;;;;;;18.45;16.55;;;14.40;99.90;;;;;;7301257;32;20119;-57
2023/04/28 12:06:43;;;;;;;15.85;14.30;;;14.70;99.90;;;;;;7300843;32;20126;-58
2023/04/28 12:11:16;;;;;;;13.13;11.82;;;15.10;99.90;;;;;;7307561;32;20232;-57
2023/04/28 12:15:22;;;;;;;12.60;11.38;;;15.40;99.90;;;;;;7296048;32;20092;-57
2023/04/28 12:19:24;;;;;;;12.52;11.18;;;15.50;99.90;;;;;;7299971;32;20257;-57
2023/04/28 12:23:34;;;;;;;10.45;9.55;;;15.70;99.90;;;;;;7305215;32;20137;-58
2023/04/28 12:27:38;;;;;;;10.90;9.90;;;15.80;99.90;;;;;;7308382;32;20862;-57
2023/04/28 12:31:51;;;;;;;11.00;9.90;;;16.10;99.90;;;;;;7298971;32;20218;-60
2023/04/28 12:35:55;;;;;;;11.48;10.13;;;16.60;99.90;;;;;;7302050;32;20207;-57
2023/04/28 12:39:57;;;;;;;9.70;8.85;;;16.90;99.90;;;;;;7303150;32;20107;-59
2023/04/28 12:43:59;;;;;;;8.52;7.72;;;17.70;99.90;;;;;;7304502;32;20115;-57
2023/04/28 12:48:01;;;;;;;10.95;8.05;;;18.20;99.90;;;;;;7307819;32;20135;-55
2023/04/28 12:52:05;;;;;;;9.63;7.55;;;18.00;99.90;;;;;;7308963;32;20103;-55
2023/04/28 12:56:07;;;;;;;9.38;6.80;;;17.50;99.90;;;;;;7309815;32;20179;-54
2023/04/28 13:00:10;;;;;;;7.70;6.93;;;17.50;99.90;;;;;;7306278;32;20361;-54
2023/04/28 13:04:11;;;;;;;9.65;7.93;;;17.50;99.90;;;;;;7300558;32;20221;-53
2023/04/28 13:08:13;;;;;;;7.72;6.90;;;17.70;99.90;;;;;;7302238;32;20174;-53
2023/04/28 13:12:15;;;;;;;8.15;6.45;;;18.10;99.90;;;;;;7303477;32;20608;-53
2023/04/28 13:16:17;;;;;;;6.97;6.30;;;18.40;99.90;;;;;;7305671;32;20167;-56
2023/04/28 13:20:19;;;;;;;6.72;5.28;;;18.50;99.90;;;;;;7302074;32;20684;-56
2023/04/28 13:24:21;;;;;;;6.55;5.00;;;18.90;99.90;;;;;;7301590;32;20115;-57
2023/04/28 13:28:23;;;;;;;5.40;4.90;;;19.60;99.90;;;;;;7299113;32;20798;-56
2023/04/28 13:32:24;;;;;;;5.62;5.05;;;20.10;99.90;;;;;;7300308;32;20218;-55
2023/04/28 13:36:28;;;;;;;5.30;4.20;;;20.50;99.90;;;;;;7302215;32;20256;-56
2023/04/28 13:40:32;;;;;;;6.60;4.57;;;21.30;99.90;;;;;;7307137;32;20091;-58
2023/04/28 13:44:34;;;;;;;5.22;4.72;;;21.80;99.90;;;;;;7300252;32;20135;-57
2023/04/28 13:48:36;;;;;;;4.95;4.45;;;21.70;99.90;;;;;;7307029;32;20192;-56
2023/04/28 13:52:38;;;;;;;5.45;4.90;;;21.50;99.90;;;;;;7305682;32;20506;-56
2023/04/28 13:56:40;;;;;;;4.82;4.32;;;21.00;99.90;;;;;;7313818;32;20770;-58
2023/04/28 14:00:42;;;;;;;4.85;4.32;;;20.50;99.90;;;;;;7307282;32;20095;-56
2023/04/28 14:04:47;;;;;;;6.22;4.15;;;20.00;99.90;;;;;;7298456;32;20565;-56
2023/04/28 14:08:50;;;;;;;4.90;4.22;;;20.70;99.90;;;;;;7299864;32;20105;-57
2023/04/28 14:12:51;;;;;;;4.05;3.65;;;20.90;99.90;;;;;;7306471;32;20105;-56
2023/04/28 14:16:53;;;;;;;5.03;3.45;;;21.50;99.90;;;;;;7304585;32;20797;-56
2023/04/28 14:20:55;;;;;;;3.95;3.15;;;21.50;99.90;;;;;;7305122;32;20269;-56
2023/04/28 14:24:57;;;;;;;3.10;2.75;;;20.50;99.90;;;;;;7300691;32;20475;-56
2023/04/28 14:28:59;;;;;;;3.15;2.28;;;20.30;99.90;;;;;;7305601;32;20127;-56
2023/04/28 14:33:01;;;;;;;2.65;2.42;;;20.40;99.90;;;;;;7296299;32;20134;-57
2023/04/28 14:37:03;;;;;;;2.17;1.90;;;20.60;99.90;;;;;;7309414;32;20158;-55
2023/04/28 14:41:04;;;;;;;1.70;1.40;;;20.20;99.90;;;;;;7302481;32;20198;-56
2023/04/28 14:45:08;;;;;;;1.83;1.17;;;20.20;99.90;;;;;;7298034;32;20209;-55
2023/04/28 14:49:10;;;;;;;2.33;1.00;;;20.10;99.90;;;;;;7306778;32;20189;-57
2023/04/28 14:53:12;;;;;;;1.67;0.90;;;19.40;99.90;;;;;;7302559;32;20124;-56
2023/04/28 14:57:14;;;;;;;1.90;1.12;;;19.10;99.90;;;;;;7300774;32;20108;-56
2023/04/28 15:01:17;;;;;;;1.25;0.70;;;18.70;99.90;;;;;;7309931;32;20217;-56
2023/04/28 15:05:18;;;;;;;1.17;0.93;;;18.50;99.90;;;;;;7310579;32;20150;-56
2023/04/28 15:09:21;;;;;;;2.15;1.60;;;18.10;99.90;;;;;;7307571;32;20267;-58
2023/04/28 15:13:24;;;;;;;3.50;1.30;;;17.80;99.90;;;;;;7301767;32;20105;-56
2023/04/28 15:17:26;;;;;;;1.90;1.35;;;17.50;99.90;;;;;;7302647;32;20099;-56
2023/04/28 15:21:29;;;;;;;2.53;1.50;;;17.30;99.90;;;;;;7302740;32;20262;-56
2023/04/28 15:25:31;;;;;;;2.90;1.30;;;17.20;99.90;;;;;;7312490;32;20251;-56
2023/04/28 15:29:33;;;;;;;2.35;2.15;;;17.00;99.90;;;;;;7296059;32;20176;-56
2023/04/28 15:33:35;;;;;;;2.92;2.60;;;16.80;99.90;;;;;;7304594;32;20138;-56
2023/04/28 15:37:36;;;;;;;5.60;3.22;;;16.40;99.90;;;;;;7306111;32;20199;-56
2023/04/28 15:41:38;;;;;;;5.10;4.60;;;16.20;99.90;;;;;;7299643;32;20311;-56
2023/04/28 15:45:40;;;;;;;7.25;5.82;;;16.00;99.90;;;;;;7297021;32;20441;-57
2023/04/28 15:49:42;;;;;;;8.35;6.53;;;15.80;99.90;;;;;;7299899;32;20183;-55
2023/04/28 15:53:43;;;;;;;5.05;4.62;;;15.70;99.90;;;;;;7290399;32;20183;-56
2023/04/28 15:57:46;;;;;;;3.87;3.47;;;15.40;99.90;;;;;;7297390;32;20127;-56
2023/04/28 16:01:48;;;;;;;2.80;2.60;;;15.40;99.90;;;;;;7287116;32;20252;-57
2023/04/28 16:05:53;;;;;;;4.28;2.50;;;15.40;99.90;;;;;;7289020;32;20710;-56
2023/04/28 16:09:55;;;;;;;2.17;1.87;;;15.60;99.90;;;;;;7311889;32;20540;-56
2023/04/28 16:13:56;;;;;;;2.17;1.87;;;15.60;99.90;;;;;;7306167;32;20214;-57
2023/04/28 16:17:58;;;;;;;2.75;1.95;;;15.60;99.90;;;;;;7301176;32;20215;-56
2023/04/28 16:22:00;;;;;;;2.12;1.73;;;15.70;99.90;;;;;;7309095;32;20126;-57
2023/04/28 16:26:02;;;;;;;2.70;2.50;;;15.80;99.90;;;;;;7299938;32;20290;-56
2023/04/28 16:30:07;;;;;;;3.95;2.40;;;15.70;99.90;;;;;;7306705;32;20108;-56
2023/04/28 16:34:09;;;;;;;4.12;2.50;;;15.70;99.90;;;;;;7303014;32;20248;-56
2023/04/28 16:38:11;;;;;;;4.20;3.03;;;15.60;99.90;;;;;;7296371;32;20127;-56
2023/04/28 16:42:13;;;;;;;4.53;2.85;;;15.40;99.90;;;;;;7301084;32;20124;-56
2023/04/28 16:46:15;;;;;;;3.35;2.87;;;15.60;99.90;;;;;;7304531;32;20744;-57
2023/04/28 16:50:17;;;;;;;3.65;3.30;;;15.60;99.90;;;;;;7296575;32;20207;-56
2023/04/28 16:54:18;;;;;;;4.47;3.10;;;15.70;99.90;;;;;;7297268;32;20522;-56
2023/04/28 16:58:20;;;;;;;5.85;4.65;;;15.60;99.90;;;;;;7298075;32;20114;-56
2023/04/28 17:02:22;;;;;;;6.25;4.82;;;15.40;99.90;;;;;;7296775;32;20204;-56
2023/04/28 17:06:24;;;;;;;7.50;6.10;;;15.30;99.90;;;;;;7295529;32;20510;-55
2023/04/28 17:10:26;;;;;;;6.62;5.93;;;15.30;99.90;;;;;;7300920;32;20243;-57
2023/04/28 17:14:28;;;;;;;6.45;5.85;;;15.30;99.90;;;;;;7298532;32;20104;-56
2023/04/28 17:18:30;;;;;;;6.00;5.40;;;15.10;99.90;;;;;;7297412;32;20151;-57
2023/04/28 17:22:31;;;;;;;10.05;5.57;;;15.10;99.90;;;;;;7301186;32;20408;-56
2023/04/28 17:26:33;;;;;;;6.07;4.80;;;15.00;99.90;;;;;;7298726;32;20195;-56
2023/04/28 17:30:35;;;;;;;5.00;4.45;;;14.90;99.90;;;;;;7300227;32;20166;-56
2023/04/28 17:34:37;;;;;;;6.65;4.93;;;14.80;99.90;;;;;;7302759;32;20605;-56
2023/04/28 17:38:39;;;;;;;5.20;4.47;;;14.90;99.90;;;;;;7300463;32;20112;-59
2023/04/28 17:42:41;;;;;;;4.50;4.10;;;14.90;99.90;;;;;;7299433;32;20138;-58
2023/04/28 17:46:43;;;;;;;5.90;4.60;;;14.70;99.90;;;;;;7302931;32;20578;-56
2023/04/28 17:50:45;;;;;;;5.03;3.90;;;14.70;99.90;;;;;;7304472;32;20123;-56
2023/04/28 17:54:47;;;;;;;3.87;3.15;;;14.60;99.90;;;;;;7311916;32;20413;-56
2023/04/28 17:58:49;;;;;;;7.87;4.10;;;14.60;99.90;;;;;;7293385;32;20513;-56
2023/04/28 18:02:51;;;;;;;4.93;3.62;;;14.50;99.90;;;;;;7299188;32;20117;-56
2023/04/28 18:06:53;;;;;;;6.62;4.37;;;14.50;99.90;;;;;;7299780;32;20253;-56
2023/04/28 18:10:56;;;;;;;6.57;5.93;;;14.40;99.90;;;;;;7294357;32;20280;-56
2023/04/28 18:14:59;;;;;;;6.75;6.15;;;14.30;99.90;;;;;;7299818;32;20314;-56
2023/04/28 18:19:01;;;;;;;9.85;6.93;;;14.30;99.90;;;;;;7296514;32;20114;-56
2023/04/28 18:23:02;;;;;;;7.37;6.68;;;14.20;99.90;;;;;;7306805;32;20611;-56
2023/04/28 18:27:04;;;;;;;8.32;7.53;;;14.20;99.90;;;;;;7303580;32;20246;-56
2023/04/28 18:31:06;;;;;;;9.07;7.45;;;14.10;99.90;;;;;;7302086;32;20096;-56
2023/04/28 18:35:08;;;;;;;8.25;7.20;;;14.10;99.90;;;;;;7303505;32;20115;-55
2023/04/28 18:39:10;;;;;;;8.95;7.55;;;14.00;99.90;;;;;;7302254;32;20726;-55
2023/04/28 18:43:12;;;;;;;8.18;7.37;;;14.00;99.90;;;;;;7303874;32;20176;-56
2023/04/28 18:47:14;;;;;;;9.68;6.93;;;14.00;99.90;;;;;;7298546;32;20514;-55
2023/04/28 18:51:16;;;;;;;7.62;6.60;;;14.00;99.90;;;;;;7303752;32;20115;-56
2023/04/28 18:55:18;;;;;;;8.68;6.95;;;13.90;99.90;;;;;;7302855;32;20241;-56
2023/04/28 18:59:19;;;;;;;9.02;6.20;;;13.80;99.90;;;;;;7292503;32;20637;-53
2023/04/28 19:03:22;;;;;;;7.45;5.85;;;13.90;99.90;;;;;;7305158;32;20549;-54
2023/04/28 19:07:24;;;;;;;10.73;5.95;;;13.90;99.90;;;;;;7294747;32;20194;-55
2023/04/28 19:11:25;;;;;;;8.35;5.62;;;13.80;99.90;;;;;;7297365;32;20099;-55
2023/04/28 19:15:27;;;;;;;9.25;5.87;;;13.80;99.90;;;;;;7293615;32;20403;-55
2023/04/28 19:19:29;;;;;;;8.82;5.72;;;13.80;99.90;;;;;;7291216;32;20413;-55
2023/04/28 19:23:31;;;;;;;6.40;5.60;;;13.70;99.90;;;;;;7297164;32;20120;-57
2023/04/28 19:27:39;;;;;;;9.65;5.97;;;13.70;99.90;;;;;;7294750;32;20127;-55
2023/04/28 19:31:41;;;;;;;5.82;5.30;;;13.70;99.90;;;;;;7293697;32;20197;-55
2023/04/28 19:35:43;;;;;;;5.72;5.12;;;13.80;99.90;;;;;;7289471;32;20518;-54
2023/04/28 19:39:46;;;;;;;9.18;6.43;;;13.70;99.90;;;;;;7301646;32;20099;-54
2023/04/28 19:43:48;;;;;;;8.13;5.85;;;13.70;99.90;;;;;;7291046;32;20323;-55
2023/04/28 19:47:51;;;;;;;7.32;6.15;;;13.80;99.90;;;;;;7293629;32;20129;-55
2023/04/28 19:51:53;;;;;;;7.40;5.68;;;13.70;99.90;;;;;;7299139;32;20371;-55
2023/04/28 19:55:59;;;;;;;8.95;5.78;;;13.70;99.90;;;;;;7300225;32;20111;-55
2023/04/28 20:00:01;;;;;;;7.82;6.78;;;13.70;99.90;;;;;;7288041;32;20175;-55
2023/04/28 20:04:03;;;;;;;7.47;6.68;;;13.80;99.90;;;;;;7300404;32;20100;-56
2023/04/28 20:08:05;;;;;;;7.97;6.80;;;13.80;99.90;;;;;;7301437;32;20104;-55
2023/04/28 20:12:08;;;;;;;10.50;6.70;;;13.80;99.90;;;;;;7293933;32;20227;-55
2023/04/28 20:16:10;;;;;;;7.57;6.78;;;13.90;99.90;;;;;;7292399;32;20158;-55
2023/04/28 20:20:12;;;;;;;8.40;7.15;;;13.90;99.90;;;;;;7289134;32;20243;-55
2023/04/28 20:24:13;;;;;;;11.25;7.37;;;13.90;99.90;;;;;;7307610;32;20120;-55
2023/04/28 20:28:15;;;;;;;8.43;7.43;;;13.80;99.90;;;;;;7296971;32;20096;-55
2023/04/28 20:32:17;;;;;;;8.48;7.62;;;13.70;99.90;;;;;;7300307;32;20128;-55
2023/04/28 20:36:18;;;;;;;9.88;8.75;;;13.60;99.90;;;;;;7299180;32;20192;-55
2023/04/28 20:40:20;;;;;;;10.55;8.13;;;13.60;99.90;;;;;;7301031;32;20446;-57
2023/04/28 20:44:21;;;;;;;10.75;7.53;;;13.70;99.90;;;;;;7296038;32;20145;-55
2023/04/28 20:48:23;;;;;;;8.80;7.47;;;13.70;99.90;;;;;;7303354;32;20524;-56
2023/04/28 20:52:26;;;;;;;10.52;7.60;;;13.60;99.90;;;;;;7302194;32;20605;-55
2023/04/28 20:56:27;;;;;;;9.20;7.90;;;13.50;99.90;;;;;;7310217;32;20829;-55